createdAt,value
2023-01-10T00:00:37.300Z,93953.53
2023-01-10T00:03:08.876Z,93966.97
2023-01-10T00:05:36.869Z,93965.91
2023-01-10T00:08:04.984Z,93981.97
2023-01-10T00:10:32.583Z,93966.34
2023-01-10T00:13:17.759Z,93988.31
2023-01-10T00:15:45.086Z,93995.38
2023-01-10T00:18:11.732Z,94008.78
2023-01-10T00:20:38.716Z,94001.00
2023-01-10T00:23:05.537Z,94022.63
2023-01-10T00:25:34.271Z,94020.72
2023-01-10T00:28:19.489Z,94016.81
2023-01-10T00:31:06.841Z,94010.09
2023-01-10T00:33:35.000Z,94024.91
2023-01-10T00:36:04.764Z,94031.53
2023-01-10T00:38:33.333Z,94035.53
2023-01-10T00:41:00.078Z,94040.06
2023-01-10T00:43:45.408Z,94053.13
2023-01-10T00:46:12.617Z,94048.94
2023-01-10T00:48:39.476Z,94057.03
2023-01-10T00:51:06.111Z,94055.91
2023-01-10T00:53:32.758Z,94073.91
2023-01-10T00:55:59.495Z,94078.47
2023-01-10T00:58:26.110Z,94073.81
2023-01-10T01:00:52.970Z,94088.81
2023-01-10T01:03:21.837Z,94083.84
2023-01-10T01:05:49.115Z,94068.09
2023-01-10T01:08:17.257Z,94073.69
2023-01-10T01:10:44.183Z,94085.25
2023-01-10T01:13:17.246Z,94099.13
2023-01-10T01:15:44.413Z,94100.81
2023-01-10T01:18:16.932Z,94103.63
2023-01-10T01:20:45.841Z,94110.50
2023-01-10T01:23:13.529Z,94115.91
2023-01-10T01:25:40.544Z,94116.25
2023-01-10T01:28:08.078Z,94134.63
2023-01-10T01:30:34.800Z,94141.69
2023-01-10T01:33:01.463Z,94147.53
2023-01-10T01:35:28.209Z,94151.91
2023-01-10T01:37:54.873Z,94146.81
2023-01-10T01:40:22.975Z,94163.63
2023-01-10T01:42:55.491Z,94157.53
2023-01-10T01:45:31.524Z,94163.94
2023-01-10T01:48:20.745Z,94181.25
2023-01-10T01:51:13.452Z,94193.97
2023-01-10T01:53:43.331Z,94191.19
2023-01-10T01:56:23.547Z,94190.94
2023-01-10T01:59:02.294Z,94214.88
2023-01-10T02:01:31.051Z,94215.34
2023-01-10T02:04:20.635Z,94216.59
2023-01-10T02:06:51.363Z,94230.53
2023-01-10T02:09:21.091Z,94237.75
2023-01-10T02:11:48.001Z,94233.94
2023-01-10T02:14:15.273Z,94250.50
2023-01-10T02:16:41.888Z,94250.38
2023-01-10T02:19:19.962Z,94254.88
2023-01-10T02:22:21.072Z,94262.72
2023-01-10T02:25:32.579Z,94265.44
2023-01-10T02:27:59.155Z,94270.72
2023-01-10T02:30:47.109Z,94274.78
2023-01-10T02:33:32.395Z,94270.53
2023-01-10T02:36:31.386Z,94267.03
2023-01-10T02:39:02.438Z,94268.63
2023-01-10T02:41:42.011Z,94280.28
2023-01-10T02:44:21.193Z,94287.97
2023-01-10T02:46:49.209Z,94284.00
2023-01-10T02:49:15.854Z,94280.66
2023-01-10T02:51:42.544Z,94287.53
2023-01-10T02:54:14.766Z,94294.81
2023-01-10T02:57:15.698Z,94290.31
2023-01-10T02:59:51.569Z,94292.00
2023-01-10T03:03:01.984Z,94301.22
2023-01-10T03:05:47.126Z,94300.31
2023-01-10T03:08:19.828Z,94304.13
2023-01-10T03:11:04.435Z,94309.19
2023-01-10T03:13:46.346Z,94318.00
2023-01-10T03:16:15.690Z,94326.19
2023-01-10T03:18:46.075Z,94331.81
2023-01-10T03:21:13.326Z,94337.22
2023-01-10T03:23:40.681Z,94334.41
2023-01-10T03:26:10.515Z,94331.69
2023-01-10T03:28:52.128Z,94344.78
2023-01-10T03:31:26.060Z,94346.66
2023-01-10T03:33:52.723Z,94345.19
2023-01-10T03:36:31.219Z,94354.66
2023-01-10T03:39:07.844Z,94345.00
2023-01-10T03:42:00.508Z,94348.34
2023-01-10T03:44:46.285Z,94343.50
2023-01-10T03:47:21.671Z,94354.31
2023-01-10T03:49:53.602Z,94357.34
2023-01-10T03:52:21.334Z,94359.72
2023-01-10T03:54:48.306Z,94360.50
2023-01-10T03:57:25.503Z,94368.97
2023-01-10T03:59:58.259Z,94391.69
2023-01-10T04:02:30.658Z,94394.38
2023-01-10T04:04:59.021Z,94404.94
2023-01-10T04:07:26.177Z,94408.00
2023-01-10T04:09:53.038Z,94422.16
2023-01-10T04:12:19.736Z,94429.25
2023-01-10T04:14:47.188Z,94438.81
2023-01-10T04:17:15.539Z,94454.22
2023-01-10T04:19:42.267Z,94456.13
2023-01-10T04:22:10.049Z,94454.91
2023-01-10T04:24:37.433Z,94458.38
2023-01-10T04:27:04.779Z,94456.66
2023-01-10T04:29:31.348Z,94453.84
2023-01-10T04:31:58.384Z,94464.56
2023-01-10T04:34:25.059Z,94466.47
2023-01-10T04:36:51.846Z,94469.63
2023-01-10T04:39:18.615Z,94468.16
2023-01-10T04:41:45.298Z,94477.72
2023-01-10T04:44:11.916Z,94482.78
2023-01-10T04:46:38.577Z,94489.00
2023-01-10T04:49:06.089Z,94488.41
2023-01-10T04:51:32.874Z,94495.28
2023-01-10T04:53:59.624Z,94498.44
2023-01-10T04:56:26.442Z,94509.44
2023-01-10T04:58:54.129Z,94517.06
2023-01-10T05:01:25.793Z,94521.47
2023-01-10T05:03:55.263Z,94528.91
2023-01-10T05:06:24.380Z,94532.72
2023-01-10T05:08:51.013Z,94531.94
2023-01-10T05:11:17.644Z,94533.06
2023-01-10T05:13:45.478Z,94540.16
2023-01-10T05:16:13.792Z,94547.25
2023-01-10T05:18:40.460Z,94552.44
2023-01-10T05:21:09.929Z,94560.19
2023-01-10T05:23:37.513Z,94569.88
2023-01-10T05:26:10.047Z,94570.19
2023-01-10T05:28:37.444Z,94569.19
2023-01-10T05:31:06.680Z,94576.84
2023-01-10T05:33:33.352Z,94581.78
2023-01-10T05:36:04.970Z,94585.84
2023-01-10T05:38:32.428Z,94581.56
2023-01-10T05:41:00.161Z,94582.16
2023-01-10T05:43:27.813Z,94582.72
2023-01-10T05:45:54.831Z,94575.38
2023-01-10T05:48:21.623Z,94586.09
2023-01-10T05:50:54.626Z,94585.75
2023-01-10T05:53:21.376Z,94582.38
2023-01-10T05:55:59.020Z,94589.25
2023-01-10T05:58:26.432Z,94581.16
2023-01-10T06:00:54.665Z,94584.75
2023-01-10T06:03:21.819Z,94588.56
2023-01-10T06:05:49.179Z,94587.19
2023-01-10T06:08:16.349Z,94583.25
2023-01-10T06:10:43.239Z,94578.16
2023-01-10T06:13:10.268Z,94583.38
2023-01-10T06:15:37.089Z,94588.28
2023-01-10T06:18:04.145Z,94588.50
2023-01-10T06:20:31.087Z,94585.13
2023-01-10T06:22:58.751Z,94590.66
2023-01-10T06:25:29.337Z,94599.31
2023-01-10T06:27:56.319Z,94607.78
2023-01-10T06:30:23.165Z,94611.72
2023-01-10T06:32:49.825Z,94607.44
2023-01-10T06:35:18.104Z,94608.03
2023-01-10T06:37:45.119Z,94616.44
2023-01-10T06:40:12.192Z,94623.78
2023-01-10T06:42:40.547Z,94622.53
2023-01-10T06:45:07.527Z,94630.38
2023-01-10T06:47:37.758Z,94640.63
2023-01-10T06:50:05.525Z,94647.53
2023-01-10T06:52:32.218Z,94656.63
2023-01-10T06:54:58.859Z,94673.88
2023-01-10T06:57:25.614Z,94680.50
2023-01-10T06:59:52.302Z,94690.19
2023-01-10T07:02:19.099Z,94674.91
2023-01-10T07:04:45.933Z,94676.56
2023-01-10T07:07:12.753Z,94674.78
2023-01-10T07:09:39.458Z,94691.44
2023-01-10T07:12:06.660Z,94692.16
2023-01-10T07:14:33.707Z,94700.34
2023-01-10T07:17:00.387Z,94716.91
2023-01-10T07:19:27.075Z,94715.31
2023-01-10T07:21:53.756Z,94718.31
2023-01-10T07:24:20.488Z,94716.78
2023-01-10T07:26:47.125Z,94717.88
2023-01-10T07:29:13.744Z,94718.88
2023-01-10T07:31:40.414Z,94723.88
2023-01-10T07:34:07.181Z,94723.41
2023-01-10T07:36:38.541Z,94743.56
2023-01-10T07:39:08.580Z,94741.84
2023-01-10T07:41:36.937Z,94746.84
2023-01-10T07:44:03.818Z,94749.69
2023-01-10T07:46:30.539Z,94749.75
2023-01-10T07:48:57.632Z,94750.09
2023-01-10T07:51:24.338Z,94752.78
2023-01-10T07:53:51.004Z,94755.06
2023-01-10T07:56:17.653Z,94749.66
2023-01-10T07:58:46.585Z,94762.31
2023-01-10T08:01:14.255Z,94766.59
2023-01-10T08:03:41.116Z,94775.75
2023-01-10T08:06:12.493Z,94785.63
2023-01-10T08:08:39.453Z,94767.94
2023-01-10T08:11:06.601Z,94783.47
2023-01-10T08:13:33.623Z,94786.84
2023-01-10T08:16:05.040Z,94792.31
2023-01-10T08:18:32.023Z,94781.38
2023-01-10T08:20:59.138Z,94785.75
2023-01-10T08:23:26.070Z,94792.31
2023-01-10T08:25:52.946Z,94791.41
2023-01-10T08:28:19.598Z,94789.31
2023-01-10T08:30:46.363Z,94788.34
2023-01-10T08:33:12.993Z,94789.88
2023-01-10T08:35:43.893Z,94794.53
2023-01-10T08:38:11.683Z,94791.69
2023-01-10T08:40:38.518Z,94805.09
2023-01-10T08:43:11.201Z,94809.94
2023-01-10T08:45:38.816Z,94799.00
2023-01-10T08:48:06.863Z,94803.41
2023-01-10T08:50:33.607Z,94813.81
2023-01-10T08:53:01.014Z,94814.47
2023-01-10T08:55:29.096Z,94813.56
2023-01-10T08:57:55.768Z,94816.53
2023-01-10T09:00:23.040Z,94820.81
2023-01-10T09:02:49.877Z,94823.78
2023-01-10T09:05:27.102Z,94823.53
2023-01-10T09:08:00.125Z,94825.72
2023-01-10T09:10:28.342Z,94823.22
2023-01-10T09:13:01.850Z,94822.56
2023-01-10T09:15:32.763Z,94824.38
2023-01-10T09:18:03.438Z,94825.50
2023-01-10T09:20:30.369Z,94836.00
2023-01-10T09:22:57.655Z,94828.41
2023-01-10T09:25:25.306Z,94838.03
2023-01-10T09:27:58.249Z,94842.19
2023-01-10T09:30:25.254Z,94845.34
2023-01-10T09:32:53.187Z,94848.50
2023-01-10T09:35:19.829Z,94858.00
2023-01-10T09:37:46.548Z,94858.53
2023-01-10T09:40:19.464Z,94859.91
2023-01-10T09:43:05.360Z,94866.91
2023-01-10T09:45:47.004Z,94877.41
2023-01-10T09:48:43.723Z,94882.38
2023-01-10T09:51:20.156Z,94879.19
2023-01-10T09:53:50.617Z,94869.81
2023-01-10T09:56:18.386Z,94871.69
2023-01-10T09:58:46.217Z,94865.34
2023-01-10T10:01:18.660Z,94874.63
2023-01-10T10:03:51.580Z,94875.59
2023-01-10T10:06:18.710Z,94880.81
2023-01-10T10:08:47.381Z,94883.88
2023-01-10T10:11:26.331Z,94874.16
2023-01-10T10:14:20.075Z,94874.56
2023-01-10T10:17:16.171Z,94872.88
2023-01-10T10:19:54.812Z,94871.03
2023-01-10T10:22:40.277Z,94879.91
2023-01-10T10:25:42.458Z,94874.31
2023-01-10T10:28:18.132Z,94876.66
2023-01-10T10:31:30.279Z,94877.66
2023-01-10T10:34:02.081Z,94883.34
2023-01-10T10:36:38.842Z,94889.66
2023-01-10T10:39:14.910Z,94890.44
2023-01-10T10:41:47.109Z,94890.31
2023-01-10T10:44:51.055Z,94891.69
2023-01-10T10:47:21.640Z,94880.97
2023-01-10T10:50:03.513Z,94889.81
2023-01-10T10:52:32.372Z,94890.84
2023-01-10T10:54:59.405Z,94870.09
2023-01-10T10:57:31.888Z,94876.09
2023-01-10T11:00:01.695Z,94867.41
2023-01-10T11:02:31.448Z,94868.97
2023-01-10T11:05:05.003Z,94869.44
2023-01-10T11:07:37.829Z,94875.03
2023-01-10T11:10:19.597Z,94870.38
2023-01-10T11:12:51.416Z,94866.50
2023-01-10T11:15:45.541Z,94867.69
2023-01-10T11:18:22.675Z,94874.53
2023-01-10T11:21:16.282Z,94871.22
2023-01-10T11:23:43.091Z,94876.47
2023-01-10T11:26:23.769Z,94873.50
2023-01-10T11:29:04.639Z,94874.84
2023-01-10T11:31:32.411Z,94875.13
2023-01-10T11:33:59.378Z,94871.69
2023-01-10T11:36:33.605Z,94876.53
2023-01-10T11:39:03.528Z,94864.00
2023-01-10T11:41:34.563Z,94868.97
2023-01-10T11:44:22.381Z,94866.69
2023-01-10T11:46:51.947Z,94856.84
2023-01-10T11:49:30.966Z,94863.25
2023-01-10T11:52:03.275Z,94862.69
2023-01-10T11:54:31.534Z,94864.06
2023-01-10T11:57:14.976Z,94869.13
2023-01-10T11:59:52.851Z,94871.84
2023-01-10T12:02:27.859Z,94878.03
2023-01-10T12:04:57.337Z,94873.34
2023-01-10T12:07:24.069Z,94862.75
2023-01-10T12:10:03.388Z,94854.00
2023-01-10T12:12:35.287Z,94840.78
2023-01-10T12:15:22.209Z,94844.63
2023-01-10T12:17:49.709Z,94842.94
2023-01-10T12:20:17.056Z,94828.91
2023-01-10T12:22:48.280Z,94840.03
2023-01-10T12:25:42.056Z,94835.59
2023-01-10T12:28:24.249Z,94832.84
2023-01-10T12:30:52.815Z,94835.47
2023-01-10T12:33:30.181Z,94834.16
2023-01-10T12:36:15.739Z,94827.59
2023-01-10T12:39:04.416Z,94830.66
2023-01-10T12:42:05.957Z,94816.94
2023-01-10T12:44:45.375Z,94831.28
2023-01-10T12:47:22.401Z,94830.34
2023-01-10T12:50:19.577Z,94820.03
2023-01-10T12:52:59.981Z,94835.06
2023-01-10T12:55:33.325Z,94830.88
2023-01-10T12:58:03.303Z,94827.03
2023-01-10T13:00:47.625Z,94813.22
2023-01-10T13:03:24.715Z,94808.06
2023-01-10T13:05:53.187Z,94816.59
2023-01-10T13:08:27.163Z,94809.84
2023-01-10T13:10:57.476Z,94811.25
2023-01-10T13:13:30.289Z,94809.94
2023-01-10T13:16:36.536Z,94810.34
2023-01-10T13:19:24.940Z,94809.72
2023-01-10T13:22:19.464Z,94803.00
2023-01-10T13:24:56.604Z,94808.97
2023-01-10T13:27:25.329Z,94800.75
2023-01-10T13:29:52.328Z,94807.84
2023-01-10T13:32:31.987Z,94802.50
2023-01-10T13:35:19.254Z,94796.28
2023-01-10T13:37:54.081Z,94802.34
2023-01-10T13:40:30.482Z,94792.47
2023-01-10T13:43:40.233Z,94792.38
2023-01-10T13:46:17.533Z,94789.44
2023-01-10T13:48:50.476Z,94787.31
2023-01-10T13:51:23.671Z,94781.44
2023-01-10T13:53:53.209Z,94786.84
2023-01-10T13:56:45.334Z,94797.47
2023-01-10T13:59:45.858Z,94790.94
2023-01-10T14:02:29.589Z,94788.00
2023-01-10T14:05:03.069Z,94793.34
2023-01-10T14:07:55.165Z,94796.31
2023-01-10T14:10:28.755Z,94791.91
2023-01-10T14:13:10.732Z,94789.91
2023-01-10T14:15:40.676Z,94790.94
2023-01-10T14:18:24.289Z,94787.78
2023-01-10T14:21:06.549Z,94796.69
2023-01-10T14:23:41.068Z,94786.78
2023-01-10T14:26:21.597Z,94782.72
2023-01-10T14:28:50.379Z,94792.22
2023-01-10T14:31:23.173Z,94796.81
2023-01-10T14:33:51.457Z,94790.97
2023-01-10T14:36:31.350Z,94790.06
2023-01-10T14:39:03.885Z,94787.00
2023-01-10T14:42:00.353Z,94787.00
2023-01-10T14:44:46.150Z,94786.91
2023-01-10T14:47:45.775Z,94778.69
2023-01-10T14:50:32.255Z,94775.31
2023-01-10T14:52:59.863Z,94768.78
2023-01-10T14:55:28.010Z,94769.53
2023-01-10T14:57:59.566Z,94773.72
2023-01-10T15:00:31.896Z,94760.50
2023-01-10T15:03:03.135Z,94766.28
2023-01-10T15:05:39.292Z,94753.44
2023-01-10T15:08:23.080Z,94749.56
2023-01-10T15:10:52.924Z,94749.25
2023-01-10T15:13:23.778Z,94744.50
2023-01-10T15:15:51.436Z,94739.09
2023-01-10T15:18:30.527Z,94741.94
2023-01-10T15:20:57.660Z,94735.03
2023-01-10T15:23:27.548Z,94726.91
2023-01-10T15:26:00.456Z,94721.84
2023-01-10T15:28:29.697Z,94722.06
2023-01-10T15:30:58.336Z,94723.78
2023-01-10T15:33:29.206Z,94718.47
2023-01-10T15:36:03.264Z,94729.72
2023-01-10T15:38:34.066Z,94724.78
2023-01-10T15:41:03.658Z,94731.53
2023-01-10T15:43:32.019Z,94722.75
2023-01-10T15:46:01.175Z,94723.75
2023-01-10T15:48:39.294Z,94724.53
2023-01-10T15:51:41.542Z,94712.47
2023-01-10T15:54:20.410Z,94707.25
2023-01-10T15:57:04.609Z,94703.50
2023-01-10T15:59:37.847Z,94703.78
2023-01-10T16:02:31.755Z,94699.75
2023-01-10T16:05:07.931Z,94704.13
2023-01-10T16:07:36.049Z,94702.56
2023-01-10T16:10:15.393Z,94706.03
2023-01-10T16:13:01.080Z,94703.66
2023-01-10T16:15:30.591Z,94707.03
2023-01-10T16:17:57.586Z,94701.63
2023-01-10T16:20:46.261Z,94699.59
2023-01-10T16:23:25.885Z,94701.59
2023-01-10T16:25:55.163Z,94699.78
2023-01-10T16:28:22.696Z,94696.69
2023-01-10T16:30:49.903Z,94700.59
2023-01-10T16:33:26.309Z,94707.25
2023-01-10T16:35:55.714Z,94704.06
2023-01-10T16:38:23.696Z,94694.06
2023-01-10T16:40:58.643Z,94701.84
2023-01-10T16:43:27.004Z,94688.94
2023-01-10T16:46:00.168Z,94696.09
2023-01-10T16:48:29.262Z,94694.84
2023-01-10T16:51:24.322Z,94695.97
2023-01-10T16:53:52.268Z,94694.84
2023-01-10T16:56:27.256Z,94677.63
2023-01-10T16:58:55.175Z,94676.69
2023-01-10T17:01:25.310Z,94669.97
2023-01-10T17:03:53.127Z,94675.34
2023-01-10T17:06:20.490Z,94669.72
2023-01-10T17:08:47.259Z,94668.81
2023-01-10T17:11:20.479Z,94671.97
2023-01-10T17:13:47.553Z,94668.06
2023-01-10T17:16:19.342Z,94668.72
2023-01-10T17:18:46.202Z,94669.16
2023-01-10T17:21:19.119Z,94659.84
2023-01-10T17:23:46.051Z,94663.78
2023-01-10T17:26:15.095Z,94669.53
2023-01-10T17:28:42.142Z,94670.41
2023-01-10T17:31:09.229Z,94664.78
2023-01-10T17:33:35.978Z,94668.16
2023-01-10T17:36:03.331Z,94659.13
2023-01-10T17:38:31.249Z,94644.50
2023-01-10T17:41:02.046Z,94655.44
2023-01-10T17:43:29.233Z,94665.56
2023-01-10T17:45:58.736Z,94655.91
2023-01-10T17:48:26.164Z,94660.50
2023-01-10T17:50:58.955Z,94660.31
2023-01-10T17:53:26.460Z,94656.25
2023-01-10T17:55:54.157Z,94651.75
2023-01-10T17:58:22.291Z,94650.41
2023-01-10T18:00:49.713Z,94645.34
2023-01-10T18:03:16.712Z,94657.28
2023-01-10T18:05:55.320Z,94648.72
2023-01-10T18:08:22.937Z,94638.50
2023-01-10T18:10:50.025Z,94642.78
2023-01-10T18:13:20.191Z,94626.56
2023-01-10T18:15:48.875Z,94634.09
2023-01-10T18:18:16.959Z,94636.47
2023-01-10T18:20:44.658Z,94629.72
2023-01-10T18:23:22.643Z,94634.00
2023-01-10T18:26:00.182Z,94633.31
2023-01-10T18:28:40.417Z,94637.59
2023-01-10T18:31:18.917Z,94629.03
2023-01-10T18:33:47.544Z,94621.97
2023-01-10T18:36:16.887Z,94622.63
2023-01-10T18:38:45.758Z,94626.09
2023-01-10T18:41:13.603Z,94623.53
2023-01-10T18:43:41.035Z,94612.81
2023-01-10T18:46:13.164Z,94616.88
2023-01-10T18:48:40.116Z,94617.41
2023-01-10T18:51:09.042Z,94628.56
2023-01-10T18:53:39.718Z,94621.50
2023-01-10T18:56:07.725Z,94622.16
2023-01-10T18:58:40.718Z,94617.69
2023-01-10T19:01:11.095Z,94609.34
2023-01-10T19:03:38.381Z,94599.44
2023-01-10T19:06:06.951Z,94598.44
2023-01-10T19:08:33.820Z,94593.13
2023-01-10T19:11:13.032Z,94596.94
2023-01-10T19:13:41.145Z,94598.41
2023-01-10T19:16:15.708Z,94600.44
2023-01-10T19:18:43.639Z,94600.53
2023-01-10T19:21:20.119Z,94596.84
2023-01-10T19:23:49.265Z,94596.50
2023-01-10T19:26:16.871Z,94594.94
2023-01-10T19:28:44.588Z,94594.16
2023-01-10T19:31:17.167Z,94584.13
2023-01-10T19:33:46.086Z,94592.69
2023-01-10T19:36:13.434Z,94580.75
2023-01-10T19:38:40.204Z,94577.59
2023-01-10T19:41:07.022Z,94581.44
2023-01-10T19:43:34.001Z,94581.88
2023-01-10T19:46:05.919Z,94583.56
2023-01-10T19:48:35.943Z,94572.63
2023-01-10T19:51:07.575Z,94570.97
2023-01-10T19:53:35.113Z,94555.66
2023-01-10T19:56:03.368Z,94569.28
2023-01-10T19:58:30.615Z,94557.56
2023-01-10T20:00:57.288Z,94558.47
2023-01-10T20:03:24.073Z,94559.69
2023-01-10T20:05:50.711Z,94557.91
2023-01-10T20:08:17.907Z,94558.47
2023-01-10T20:10:44.595Z,94555.09
2023-01-10T20:13:11.216Z,94554.63
2023-01-10T20:15:38.106Z,94549.91
2023-01-10T20:18:04.924Z,94549.56
2023-01-10T20:20:31.550Z,94544.28
2023-01-10T20:22:58.192Z,94543.16
2023-01-10T20:25:24.860Z,94541.91
2023-01-10T20:27:51.625Z,94536.84
2023-01-10T20:30:18.790Z,94545.72
2023-01-10T20:32:45.568Z,94541.81
2023-01-10T20:35:13.978Z,94535.16
2023-01-10T20:37:40.659Z,94539.84
2023-01-10T20:40:09.726Z,94535.59
2023-01-10T20:42:36.373Z,94540.34
2023-01-10T20:45:03.196Z,94533.00
2023-01-10T20:47:29.815Z,94533.69
2023-01-10T20:49:56.629Z,94534.81
2023-01-10T20:52:23.298Z,94530.44
2023-01-10T20:54:49.959Z,94523.22
2023-01-10T20:57:17.029Z,94524.47
2023-01-10T20:59:48.144Z,94531.09
2023-01-10T21:02:14.798Z,94527.50
2023-01-10T21:04:41.595Z,94517.59
2023-01-10T21:07:08.512Z,94517.25
2023-01-10T21:09:35.173Z,94512.97
2023-01-10T21:12:17.388Z,94511.81
2023-01-10T21:14:49.381Z,94511.91
2023-01-10T21:17:16.149Z,94513.84
2023-01-10T21:19:42.826Z,94505.38
2023-01-10T21:22:09.954Z,94506.97
2023-01-10T21:24:37.380Z,94510.22
2023-01-10T21:27:04.100Z,94525.00
2023-01-10T21:29:30.925Z,94521.63
2023-01-10T21:31:57.710Z,94518.22
2023-01-10T21:34:24.379Z,94522.41
2023-01-10T21:36:54.415Z,94519.50
2023-01-10T21:39:21.142Z,94516.69
2023-01-10T21:42:06.424Z,94521.97
2023-01-10T21:44:33.187Z,94514.19
2023-01-10T21:46:59.864Z,94511.81
2023-01-10T21:49:26.653Z,94502.81
2023-01-10T21:51:53.342Z,94504.97
2023-01-10T21:54:20.092Z,94503.59
2023-01-10T21:56:46.751Z,94505.53
2023-01-10T21:59:13.475Z,94497.31
2023-01-10T22:01:40.102Z,94500.88
2023-01-10T22:04:07.191Z,94496.38
2023-01-10T22:06:33.885Z,94494.13
2023-01-10T22:09:00.853Z,94492.22
2023-01-10T22:11:27.643Z,94498.50
2023-01-10T22:13:55.089Z,94489.38
2023-01-10T22:16:21.786Z,94493.19
2023-01-10T22:18:49.820Z,94488.78
2023-01-10T22:21:17.590Z,94498.13
2023-01-10T22:23:45.321Z,94479.66
2023-01-10T22:26:14.939Z,94486.66
2023-01-10T22:28:42.007Z,94478.28
2023-01-10T22:31:08.865Z,94480.31
2023-01-10T22:33:37.561Z,94477.66
2023-01-10T22:36:06.283Z,94479.31
2023-01-10T22:38:33.974Z,94474.88
2023-01-10T22:41:19.767Z,94475.69
2023-01-10T22:43:47.350Z,94478.16
2023-01-10T22:46:17.393Z,94481.03
2023-01-10T22:48:44.362Z,94466.34
2023-01-10T22:51:11.913Z,94475.50
2023-01-10T22:53:38.735Z,94471.69
2023-01-10T22:56:07.543Z,94463.66
2023-01-10T22:58:34.200Z,94478.41
2023-01-10T23:01:03.916Z,94468.47
2023-01-10T23:03:30.604Z,94466.03
2023-01-10T23:05:58.104Z,94462.28
2023-01-10T23:08:26.104Z,94463.00
2023-01-10T23:10:54.260Z,94462.81
2023-01-10T23:13:25.214Z,94462.13
2023-01-10T23:16:03.726Z,94454.25
2023-01-10T23:18:31.636Z,94452.16
2023-01-10T23:20:58.342Z,94455.81
2023-01-10T23:23:25.961Z,94458.34
2023-01-10T23:26:02.079Z,94450.13
2023-01-10T23:28:29.764Z,94450.66
2023-01-10T23:30:56.401Z,94451.94
2023-01-10T23:33:23.289Z,94432.75
2023-01-10T23:35:50.003Z,94437.50
2023-01-10T23:38:17.483Z,94439.06
2023-01-10T23:40:44.776Z,94442.75
2023-01-10T23:43:11.565Z,94450.09
2023-01-10T23:45:38.382Z,94443.41
2023-01-10T23:48:06.047Z,94432.75
2023-01-10T23:50:32.780Z,94437.06
2023-01-10T23:52:59.427Z,94440.34
2023-01-10T23:55:26.068Z,94442.63
2023-01-10T23:57:52.823Z,94435.72
